Lumsden, Canada
Current Conditions -  °F | °C
As of 8:18 PM on Friday 21 Nov 2014 (Local Time) from CYQR Reporting Station
Light Rain Light Rain  
Wind Chill: 28°   Ceiling: 4800
Heat Index: 36°   Visibility: 15mi
Dew Point: 34°   Wind: 10mph
Humidity: 93%   Direction: 280°W
Pressure: 29.56"   Gusts: NA
Location:  50.64°N, 104.87°W
Report Text: CYQR 220218Z 28009KT 15SM -RA FEW023 OVC048 02/01 A2956 RMK SC2SC6 SLP037
Loading
Personal Weather Stations






























Interactive Weather Map New forecast layout! Learn more

10-Day Weather Forecast

Advertisements
Track Severe Weather on mobile